createdAt,value
2018-03-21T00:00:21.698Z,7.07
2018-03-21T00:01:24.256Z,6.78
2018-03-21T00:02:26.777Z,5.75
2018-03-21T00:03:29.315Z,4.82
2018-03-21T00:04:31.848Z,7.93
2018-03-21T00:05:35.173Z,7.20
2018-03-21T00:06:37.738Z,7.70
2018-03-21T00:07:40.264Z,5.32
2018-03-21T00:08:43.552Z,6.30
2018-03-21T00:09:46.842Z,5.10
2018-03-21T00:10:49.371Z,5.05
2018-03-21T00:11:51.933Z,7.55
2018-03-21T00:12:54.468Z,8.65
2018-03-21T00:13:57.033Z,5.45
2018-03-21T00:14:59.547Z,6.78
2018-03-21T00:16:02.074Z,4.07
2018-03-21T00:17:04.607Z,5.82
2018-03-21T00:18:07.129Z,5.15
2018-03-21T00:19:09.697Z,5.50
2018-03-21T00:20:12.230Z,4.00
2018-03-21T00:21:14.758Z,5.28
2018-03-21T00:22:18.048Z,3.62
2018-03-21T00:23:21.367Z,4.53
2018-03-21T00:24:23.891Z,3.75
2018-03-21T00:25:27.215Z,4.03
2018-03-21T00:26:29.754Z,5.82
2018-03-21T00:27:32.276Z,5.68
2018-03-21T00:28:34.831Z,6.80
2018-03-21T00:29:37.362Z,3.80
2018-03-21T00:30:39.881Z,3.87
2018-03-21T00:31:42.401Z,6.10
2018-03-21T00:32:44.970Z,3.92
2018-03-21T00:33:47.502Z,4.00
2018-03-21T00:34:50.809Z,5.32
2018-03-21T00:35:53.441Z,5.85
2018-03-21T00:36:55.970Z,9.88
2018-03-21T00:37:58.533Z,3.72
2018-03-21T00:39:01.066Z,4.62
2018-03-21T00:40:03.600Z,5.35
2018-03-21T00:41:06.117Z,3.72
2018-03-21T00:42:08.636Z,2.50
2018-03-21T00:43:11.208Z,4.25
2018-03-21T00:44:13.738Z,3.95
2018-03-21T00:45:16.269Z,9.18
2018-03-21T00:46:18.794Z,3.92
2018-03-21T00:47:21.318Z,3.03
2018-03-21T00:48:23.880Z,3.25
2018-03-21T00:49:26.397Z,3.47
2018-03-21T00:50:28.940Z,4.60
2018-03-21T00:51:31.465Z,4.62
2018-03-21T00:52:33.996Z,3.62
2018-03-21T00:53:36.555Z,5.28
2018-03-21T00:54:39.082Z,3.92
2018-03-21T00:55:41.617Z,5.50
2018-03-21T00:56:44.901Z,6.00
2018-03-21T00:57:48.189Z,4.03
2018-03-21T00:58:50.747Z,4.18
2018-03-21T00:59:54.038Z,8.95
2018-03-21T01:00:56.624Z,6.80
2018-03-21T01:01:59.174Z,3.35
2018-03-21T01:03:01.692Z,5.65
2018-03-21T01:04:04.204Z,3.53
2018-03-21T01:05:06.734Z,3.65
2018-03-21T01:06:09.251Z,3.85
2018-03-21T01:07:11.801Z,6.53
2018-03-21T01:08:15.086Z,4.30
2018-03-21T01:09:17.618Z,2.60
2018-03-21T01:10:20.150Z,3.08
2018-03-21T01:11:22.681Z,7.10
2018-03-21T01:12:26.049Z,4.60
2018-03-21T01:13:28.565Z,8.95
2018-03-21T01:14:31.096Z,3.35
2018-03-21T01:15:33.666Z,3.12
2018-03-21T01:16:36.948Z,4.00
2018-03-21T01:17:40.241Z,4.93
2018-03-21T01:18:42.805Z,3.62
2018-03-21T01:19:45.369Z,2.83
2018-03-21T01:20:48.670Z,3.70
2018-03-21T01:21:51.195Z,5.07
2018-03-21T01:22:54.483Z,3.00
2018-03-21T01:23:57.785Z,3.78
2018-03-21T01:25:00.359Z,3.70
2018-03-21T01:26:02.903Z,4.32
2018-03-21T01:27:06.206Z,5.87
2018-03-21T01:28:08.773Z,3.78
2018-03-21T01:29:11.302Z,6.03
2018-03-21T01:30:13.831Z,4.05
2018-03-21T01:31:16.381Z,7.85
2018-03-21T01:32:18.899Z,5.15
2018-03-21T01:33:21.429Z,5.65
2018-03-21T01:34:23.946Z,3.08
2018-03-21T01:35:27.250Z,3.58
2018-03-21T01:36:29.854Z,3.50
2018-03-21T01:37:32.410Z,4.00
2018-03-21T01:38:34.924Z,6.07
2018-03-21T01:39:38.269Z,3.72
2018-03-21T01:40:40.787Z,5.35
2018-03-21T01:41:43.349Z,4.22
2018-03-21T01:42:46.672Z,3.35
2018-03-21T01:43:49.210Z,5.03
2018-03-21T01:44:52.506Z,3.42
2018-03-21T01:45:55.038Z,3.75
2018-03-21T01:46:57.573Z,4.72
2018-03-21T01:48:00.220Z,7.10
2018-03-21T01:49:02.781Z,8.20
2018-03-21T01:50:05.373Z,20.40
2018-03-21T01:51:07.901Z,23.67
2018-03-21T01:52:10.449Z,46.25
2018-03-21T01:53:13.751Z,54.92
2018-03-21T01:54:16.329Z,33.50
2018-03-21T01:55:18.857Z,26.65
2018-03-21T01:56:21.391Z,25.37
2018-03-21T01:57:23.929Z,29.10
2018-03-21T01:58:26.458Z,23.23
2018-03-21T01:59:29.017Z,21.17
2018-03-21T02:00:31.590Z,25.98
2018-03-21T02:01:34.126Z,40.35
2018-03-21T02:02:36.665Z,34.38
2018-03-21T02:03:39.188Z,46.65
2018-03-21T02:04:41.753Z,44.75
2018-03-21T02:05:44.290Z,59.45
2018-03-21T02:06:46.817Z,53.05
2018-03-21T02:07:49.388Z,50.47
2018-03-21T02:08:51.953Z,52.20
2018-03-21T02:09:54.489Z,45.40
2018-03-21T02:10:57.045Z,31.15
2018-03-21T02:11:59.570Z,26.00
2018-03-21T02:13:02.097Z,29.10
2018-03-21T02:14:05.429Z,30.95
2018-03-21T02:15:07.966Z,28.60
2018-03-21T02:16:10.750Z,25.73
2018-03-21T02:17:13.281Z,25.20
2018-03-21T02:18:16.594Z,28.12
2018-03-21T02:19:19.162Z,22.25
2018-03-21T02:20:21.690Z,29.45
2018-03-21T02:21:24.224Z,27.45
2018-03-21T02:22:26.756Z,27.17
2018-03-21T02:23:29.276Z,25.65
2018-03-21T02:24:31.839Z,26.52
2018-03-21T02:25:34.364Z,25.37
2018-03-21T02:26:36.927Z,22.83
2018-03-21T02:27:39.465Z,24.58
2018-03-21T02:28:42.765Z,18.50
2018-03-21T02:29:46.078Z,14.50
2018-03-21T02:30:48.596Z,10.45
2018-03-21T02:31:51.929Z,11.45
2018-03-21T02:32:54.465Z,9.50
2018-03-21T02:33:56.999Z,11.52
2018-03-21T02:34:59.562Z,10.65
2018-03-21T02:36:02.138Z,9.40
2018-03-21T02:37:04.706Z,9.52
2018-03-21T02:38:07.242Z,9.85
2018-03-21T02:39:09.785Z,7.25
2018-03-21T02:40:12.344Z,13.07
2018-03-21T02:41:14.863Z,14.00
2018-03-21T02:42:17.426Z,12.20
2018-03-21T02:43:19.953Z,12.95
2018-03-21T02:44:22.483Z,12.98
2018-03-21T02:45:25.770Z,17.00
2018-03-21T02:46:29.054Z,14.40
2018-03-21T02:47:32.379Z,16.40
2018-03-21T02:48:34.936Z,13.18
2018-03-21T02:49:37.469Z,15.30
2018-03-21T02:51:49.740Z,13.02
2018-03-21T02:52:52.312Z,15.02
2018-03-21T02:53:54.859Z,12.93
2018-03-21T02:54:57.394Z,11.93
2018-03-21T02:55:59.935Z,14.65
2018-03-21T02:57:03.226Z,11.02
2018-03-21T02:58:06.546Z,13.75
2018-03-21T02:59:09.070Z,10.18
2018-03-21T03:00:12.398Z,12.18
2018-03-21T03:01:14.919Z,11.07
2018-03-21T03:02:18.502Z,10.00
2018-03-21T03:03:21.798Z,11.60
2018-03-21T03:04:25.097Z,11.95
2018-03-21T03:05:27.665Z,8.50
2018-03-21T03:06:30.198Z,8.15
2018-03-21T03:07:32.732Z,8.20
2018-03-21T03:08:35.303Z,7.62
2018-03-21T03:09:37.838Z,5.93
2018-03-21T03:10:40.359Z,9.80
2018-03-21T03:11:42.882Z,4.85
2018-03-21T03:12:45.426Z,5.87
2018-03-21T03:13:48.740Z,7.65
2018-03-21T03:14:51.260Z,4.25
2018-03-21T03:15:54.572Z,5.50
2018-03-21T03:16:57.142Z,4.90
2018-03-21T03:17:59.702Z,5.53
2018-03-21T03:19:02.234Z,10.02
2018-03-21T03:20:05.518Z,2.95
2018-03-21T03:21:08.797Z,3.50
2018-03-21T03:22:11.373Z,5.28
2018-03-21T03:23:14.663Z,4.90
2018-03-21T03:24:17.940Z,4.78
2018-03-21T03:25:21.232Z,9.63
2018-03-21T03:26:24.527Z,5.10
2018-03-21T03:27:27.079Z,3.72
2018-03-21T03:28:30.373Z,4.62
2018-03-21T03:29:32.900Z,5.00
2018-03-21T03:30:35.455Z,8.07
2018-03-21T03:31:37.992Z,4.32
2018-03-21T03:32:41.322Z,4.00
2018-03-21T03:33:43.848Z,3.12
2018-03-21T03:34:46.365Z,4.62
2018-03-21T03:35:48.884Z,8.77
2018-03-21T03:36:51.451Z,9.80
2018-03-21T03:37:54.006Z,14.60
2018-03-21T03:40:05.450Z,3.42
2018-03-21T03:41:08.734Z,6.12
2018-03-21T03:42:12.031Z,3.28
2018-03-21T03:43:14.589Z,3.42
2018-03-21T03:44:17.874Z,6.97
2018-03-21T03:45:21.158Z,3.12
2018-03-21T03:46:24.440Z,6.55
2018-03-21T03:47:27.722Z,3.75
2018-03-21T03:48:31.041Z,2.25
2018-03-21T03:49:33.566Z,3.12
2018-03-21T03:50:36.853Z,5.62
2018-03-21T03:51:40.146Z,4.07
2018-03-21T03:52:43.428Z,3.40
2018-03-21T03:53:46.761Z,3.97
2018-03-21T03:54:49.293Z,3.12
2018-03-21T03:55:51.827Z,3.97
2018-03-21T03:56:54.348Z,6.53
2018-03-21T03:57:56.878Z,2.90
2018-03-21T03:59:00.245Z,3.85
2018-03-21T04:00:03.553Z,2.80
2018-03-21T04:01:06.856Z,7.15
2018-03-21T04:02:09.377Z,2.25
2018-03-21T04:03:11.909Z,2.85
2018-03-21T04:05:23.287Z,2.45
2018-03-21T04:06:25.814Z,2.30
2018-03-21T04:07:29.109Z,4.15
2018-03-21T04:08:31.632Z,2.55
2018-03-21T04:09:34.185Z,4.53
2018-03-21T04:10:36.931Z,4.15
2018-03-21T04:11:39.453Z,2.87
2018-03-21T04:12:42.740Z,3.50
2018-03-21T04:13:46.030Z,2.80
2018-03-21T04:14:49.330Z,4.45
2018-03-21T04:15:51.887Z,2.72
2018-03-21T04:16:54.406Z,7.80
2018-03-21T04:17:56.954Z,3.30
2018-03-21T04:18:59.478Z,3.17
2018-03-21T04:20:02.770Z,2.25
2018-03-21T04:21:06.096Z,2.45
2018-03-21T04:22:08.623Z,2.85
2018-03-21T04:23:11.152Z,3.75
2018-03-21T04:24:13.673Z,2.85
2018-03-21T04:25:16.200Z,5.03
2018-03-21T04:26:18.757Z,9.35
2018-03-21T04:27:21.325Z,3.87
2018-03-21T04:28:23.869Z,3.72
2018-03-21T04:29:27.161Z,4.30
2018-03-21T04:30:29.676Z,6.12
2018-03-21T04:31:32.188Z,3.78
2018-03-21T04:32:34.754Z,3.08
2018-03-21T04:33:37.281Z,6.30
2018-03-21T04:34:39.819Z,4.00
2018-03-21T04:35:43.137Z,7.37
2018-03-21T04:36:45.655Z,8.07
2018-03-21T04:37:48.175Z,3.92
2018-03-21T04:38:50.690Z,3.17
2018-03-21T04:39:53.213Z,3.12
2018-03-21T04:40:55.774Z,5.07
2018-03-21T04:41:58.297Z,5.80
2018-03-21T04:43:01.590Z,6.25
2018-03-21T04:44:04.889Z,4.93
2018-03-21T04:45:07.419Z,2.53
2018-03-21T04:46:09.979Z,3.85
2018-03-21T04:47:12.504Z,4.25
2018-03-21T04:48:15.030Z,3.47
2018-03-21T04:49:18.321Z,4.28
2018-03-21T04:50:21.622Z,3.50
2018-03-21T04:51:24.176Z,2.22
2018-03-21T04:52:26.699Z,5.85
2018-03-21T04:53:29.261Z,5.22
2018-03-21T04:54:31.790Z,5.78
2018-03-21T04:55:34.316Z,6.12
2018-03-21T04:56:36.834Z,5.15
2018-03-21T04:57:39.350Z,3.30
2018-03-21T04:58:41.902Z,4.47
2018-03-21T04:59:44.433Z,4.47
2018-03-21T05:00:46.984Z,4.00
2018-03-21T05:01:49.553Z,4.15
2018-03-21T05:02:52.078Z,3.60
2018-03-21T05:03:54.632Z,2.67
2018-03-21T05:04:57.155Z,7.10
2018-03-21T05:05:59.744Z,5.53
2018-03-21T05:07:02.258Z,2.83
2018-03-21T05:08:05.537Z,3.15
2018-03-21T05:09:08.826Z,3.90
2018-03-21T05:10:12.115Z,4.50
2018-03-21T05:11:15.428Z,5.32
2018-03-21T05:12:17.961Z,4.75
2018-03-21T05:13:21.277Z,7.80
2018-03-21T05:14:23.813Z,10.30
2018-03-21T05:15:27.101Z,4.87
2018-03-21T05:16:30.426Z,7.82
2018-03-21T05:17:32.945Z,5.78
2018-03-21T05:18:36.231Z,3.78
2018-03-21T05:19:39.530Z,8.98
2018-03-21T05:20:42.189Z,5.28
2018-03-21T05:21:45.513Z,8.05
2018-03-21T05:22:48.035Z,5.80
2018-03-21T05:23:51.318Z,2.85
2018-03-21T05:24:54.655Z,3.35
2018-03-21T05:25:57.161Z,2.87
2018-03-21T05:27:00.448Z,6.53
2018-03-21T05:28:03.739Z,8.93
2018-03-21T05:29:06.266Z,2.90
2018-03-21T05:30:08.826Z,4.75
2018-03-21T05:31:11.382Z,3.40
2018-03-21T05:32:13.919Z,5.60
2018-03-21T05:33:16.433Z,4.07
2018-03-21T05:34:18.964Z,3.37
2018-03-21T05:35:21.485Z,6.07
2018-03-21T05:36:24.821Z,6.90
2018-03-21T05:37:27.350Z,7.32
2018-03-21T05:38:30.640Z,11.20
2018-03-21T05:39:33.167Z,11.80
2018-03-21T05:40:35.688Z,7.78
2018-03-21T05:41:38.243Z,4.18
2018-03-21T05:42:40.796Z,6.82
2018-03-21T05:43:44.081Z,3.50
2018-03-21T05:44:47.377Z,8.93
2018-03-21T05:45:49.936Z,10.02
2018-03-21T05:46:53.221Z,8.43
2018-03-21T05:47:56.508Z,3.95
2018-03-21T05:48:59.924Z,8.63
2018-03-21T05:50:02.503Z,3.72
2018-03-21T05:51:05.025Z,4.00
2018-03-21T05:52:07.575Z,8.30
2018-03-21T05:53:10.865Z,2.85
2018-03-21T05:54:14.153Z,8.35
2018-03-21T05:55:17.474Z,7.78
2018-03-21T05:56:20.008Z,3.40
2018-03-21T05:57:22.534Z,5.80
2018-03-21T05:58:25.058Z,7.43
2018-03-21T05:59:27.608Z,8.00
2018-03-21T06:00:30.134Z,9.45
2018-03-21T06:01:32.658Z,5.50
2018-03-21T06:02:35.180Z,4.68
2018-03-21T06:03:37.698Z,5.65
2018-03-21T06:04:40.269Z,8.63
2018-03-21T06:05:42.789Z,11.63
2018-03-21T06:06:46.078Z,5.00
2018-03-21T06:07:49.366Z,7.90
2018-03-21T06:08:52.656Z,6.57
2018-03-21T06:09:55.214Z,6.80
2018-03-21T06:10:58.503Z,4.28
2018-03-21T06:12:01.801Z,7.07
2018-03-21T06:13:04.334Z,8.07
2018-03-21T06:14:07.634Z,6.28
2018-03-21T06:15:10.952Z,5.60
2018-03-21T06:16:13.490Z,8.50
2018-03-21T06:17:16.009Z,5.75
2018-03-21T06:18:18.523Z,4.80
2018-03-21T06:19:21.151Z,6.45
2018-03-21T06:20:24.466Z,8.05
2018-03-21T06:21:27.793Z,8.93
2018-03-21T06:22:30.355Z,5.10
2018-03-21T06:23:32.891Z,4.35
2018-03-21T06:24:36.175Z,6.70
2018-03-21T06:25:39.469Z,7.78
2018-03-21T06:26:42.007Z,6.90
2018-03-21T06:27:44.589Z,5.65
2018-03-21T06:28:47.868Z,6.43
2018-03-21T06:29:51.158Z,4.60
2018-03-21T06:30:54.441Z,5.45
2018-03-21T06:31:57.762Z,5.65
2018-03-21T06:33:00.285Z,6.78
2018-03-21T06:34:03.571Z,9.60
2018-03-21T06:35:06.871Z,14.05
2018-03-21T06:36:09.394Z,5.97
2018-03-21T06:37:11.956Z,6.00
2018-03-21T06:38:14.476Z,3.80
2018-03-21T06:39:16.985Z,4.80
2018-03-21T06:40:19.505Z,5.70
2018-03-21T06:41:22.021Z,37.55
2018-03-21T06:42:24.589Z,29.33
2018-03-21T06:43:27.118Z,44.15
2018-03-21T06:44:29.658Z,16.37
2018-03-21T06:45:32.217Z,16.90
2018-03-21T06:46:34.757Z,11.65
2018-03-21T06:47:37.280Z,5.00
2018-03-21T06:48:39.853Z,10.35
2018-03-21T06:49:42.370Z,27.02
2018-03-21T06:50:45.821Z,13.35
2018-03-21T06:51:48.374Z,7.32
2018-03-21T06:52:50.973Z,7.85
2018-03-21T06:53:53.534Z,5.00
2018-03-21T06:54:56.074Z,5.82
2018-03-21T06:55:58.610Z,8.57
2018-03-21T06:57:01.139Z,8.60
2018-03-21T06:58:03.672Z,11.20
2018-03-21T06:59:06.238Z,5.10
2018-03-21T07:00:08.776Z,11.20
2018-03-21T07:01:11.326Z,12.70
2018-03-21T07:02:14.627Z,6.97
2018-03-21T07:03:17.185Z,9.80
2018-03-21T07:04:20.472Z,5.47
2018-03-21T07:05:23.762Z,10.05
2018-03-21T07:06:26.306Z,11.15
2018-03-21T07:07:29.598Z,5.90
2018-03-21T07:08:32.920Z,8.27
2018-03-21T07:09:35.442Z,9.55
2018-03-21T07:10:38.778Z,7.43
2018-03-21T07:11:41.302Z,9.07
2018-03-21T07:12:44.588Z,9.85
2018-03-21T07:13:59.893Z,13.68
2018-03-21T07:15:14.251Z,10.63
2018-03-21T07:16:29.553Z,6.90
2018-03-21T07:17:32.857Z,6.18
2018-03-21T07:18:35.400Z,5.97
2018-03-21T07:19:38.693Z,9.82
2018-03-21T07:20:41.988Z,4.53
2018-03-21T07:21:44.654Z,7.15
2018-03-21T07:22:47.220Z,8.85
2018-03-21T07:23:50.504Z,9.27
2018-03-21T07:24:53.029Z,7.78
2018-03-21T07:25:55.547Z,6.05
2018-03-21T07:26:58.103Z,5.05
2018-03-21T07:28:00.630Z,7.40
2018-03-21T07:29:03.153Z,72.95
2018-03-21T07:30:05.670Z,15.65
2018-03-21T07:31:08.233Z,11.07
2018-03-21T07:32:10.744Z,6.45
2018-03-21T07:33:13.258Z,7.53
2018-03-21T07:34:15.781Z,3.78
2018-03-21T07:35:18.292Z,6.12
2018-03-21T07:36:20.836Z,5.07
2018-03-21T07:37:23.358Z,3.95
2018-03-21T07:38:26.644Z,7.72
2018-03-21T07:39:29.165Z,4.80
2018-03-21T07:40:31.745Z,9.25
2018-03-21T07:41:34.308Z,7.55
2018-03-21T07:42:36.825Z,10.02
2018-03-21T07:43:39.342Z,7.30
2018-03-21T07:44:41.887Z,5.87
2018-03-21T07:45:44.436Z,6.43
2018-03-21T07:46:46.978Z,4.75
2018-03-21T07:47:49.552Z,22.05
2018-03-21T07:48:52.279Z,12.00
2018-03-21T07:49:54.806Z,5.65
2018-03-21T07:50:57.328Z,9.02
2018-03-21T07:52:00.612Z,6.20
2018-03-21T07:53:03.957Z,12.20
2018-03-21T07:54:06.473Z,7.35
2018-03-21T07:55:09.762Z,5.47
2018-03-21T07:56:12.285Z,7.25
2018-03-21T07:57:14.794Z,6.15
2018-03-21T07:58:17.350Z,3.85
2018-03-21T07:59:20.648Z,6.72
2018-03-21T08:00:23.160Z,7.78
2018-03-21T08:01:25.706Z,5.60
2018-03-21T08:02:28.237Z,6.90
2018-03-21T08:03:31.527Z,11.73
2018-03-21T08:04:34.081Z,10.07
2018-03-21T08:05:37.396Z,4.45
2018-03-21T08:06:39.908Z,6.12
2018-03-21T08:07:42.440Z,7.35
2018-03-21T08:08:44.960Z,7.28
2018-03-21T08:09:48.276Z,6.00
2018-03-21T08:10:50.821Z,3.58
2018-03-21T08:11:54.105Z,4.10
2018-03-21T08:12:57.424Z,9.27
2018-03-21T08:13:59.937Z,6.00
2018-03-21T08:15:02.440Z,5.15
2018-03-21T08:16:05.007Z,6.53
2018-03-21T08:17:07.545Z,4.90
2018-03-21T08:18:10.828Z,10.95
2018-03-21T08:19:14.164Z,5.95
2018-03-21T08:20:16.698Z,5.12
2018-03-21T08:21:19.217Z,6.70
2018-03-21T08:22:21.765Z,6.18
2018-03-21T08:23:24.284Z,7.00
2018-03-21T08:24:27.562Z,7.10
2018-03-21T08:25:30.844Z,9.25
2018-03-21T08:26:34.206Z,8.10
2018-03-21T08:27:36.721Z,11.57
2018-03-21T08:28:39.238Z,3.40
2018-03-21T08:29:41.754Z,6.22
2018-03-21T08:30:44.308Z,7.82
2018-03-21T08:31:46.828Z,7.03
2018-03-21T08:33:58.283Z,4.47
2018-03-21T08:35:00.844Z,6.90
2018-03-21T08:36:03.374Z,4.30
2018-03-21T08:37:06.676Z,5.78
2018-03-21T08:38:09.233Z,5.62
2018-03-21T08:39:11.762Z,15.02
2018-03-21T08:40:14.282Z,5.47
2018-03-21T08:41:16.841Z,7.40
2018-03-21T08:42:19.379Z,11.40
2018-03-21T08:43:22.694Z,5.47
2018-03-21T08:44:25.263Z,9.15
2018-03-21T08:45:27.799Z,6.93
2018-03-21T08:46:31.080Z,6.47
2018-03-21T08:47:33.597Z,5.15
2018-03-21T08:48:36.113Z,5.25
2018-03-21T08:49:38.696Z,7.53
2018-03-21T08:50:41.965Z,5.05
2018-03-21T08:51:45.274Z,4.62
2018-03-21T08:52:47.834Z,6.95
2018-03-21T08:53:51.165Z,6.28
2018-03-21T08:54:53.645Z,4.05
2018-03-21T08:55:56.186Z,8.52
2018-03-21T08:56:58.733Z,5.22
2018-03-21T08:58:01.255Z,7.03
2018-03-21T08:59:03.783Z,6.40
2018-03-21T09:00:06.325Z,5.85
2018-03-21T09:01:08.841Z,4.35
2018-03-21T09:02:11.406Z,6.05
2018-03-21T09:03:13.918Z,7.68
2018-03-21T09:04:16.448Z,6.15
2018-03-21T09:05:18.970Z,6.47
2018-03-21T09:06:21.488Z,4.62
2018-03-21T09:07:24.045Z,7.10
2018-03-21T09:08:26.582Z,5.28
2018-03-21T09:09:29.113Z,7.87
2018-03-21T09:10:31.636Z,4.87
2018-03-21T09:11:34.144Z,7.40
2018-03-21T09:12:36.768Z,3.72
2018-03-21T09:13:39.285Z,10.50
2018-03-21T09:14:41.850Z,6.15
2018-03-21T09:15:44.385Z,9.20
2018-03-21T09:16:46.905Z,7.07
2018-03-21T09:17:49.429Z,4.57
2018-03-21T09:18:52.772Z,5.43
2018-03-21T09:19:55.301Z,9.82
2018-03-21T09:20:57.841Z,4.43
2018-03-21T09:22:01.134Z,12.85
2018-03-21T09:23:04.486Z,10.63
2018-03-21T09:24:07.016Z,7.30
2018-03-21T09:25:09.531Z,7.47
2018-03-21T09:26:12.089Z,7.50
2018-03-21T09:27:14.606Z,9.70
2018-03-21T09:28:17.126Z,5.85
2018-03-21T09:29:19.646Z,8.25
2018-03-21T09:30:22.168Z,7.82
2018-03-21T09:31:25.492Z,11.30
2018-03-21T09:32:28.014Z,7.55
2018-03-21T09:33:31.298Z,12.30
2018-03-21T09:34:34.597Z,13.98
2018-03-21T09:35:37.881Z,7.25
2018-03-21T09:36:41.199Z,7.45
2018-03-21T09:37:43.721Z,5.60
2018-03-21T09:38:47.008Z,6.00
2018-03-21T09:39:50.333Z,3.28
2018-03-21T09:40:52.857Z,8.02
2018-03-21T09:41:56.147Z,7.40
2018-03-21T09:42:59.626Z,6.80
2018-03-21T09:44:02.941Z,9.60
2018-03-21T09:45:05.472Z,6.05
2018-03-21T09:46:08.765Z,15.98
2018-03-21T09:47:12.054Z,7.37
2018-03-21T09:48:15.345Z,6.10
2018-03-21T09:49:18.671Z,8.55
2018-03-21T09:50:21.199Z,7.75
2018-03-21T09:51:23.721Z,8.52
2018-03-21T09:52:26.246Z,8.82
2018-03-21T09:53:28.758Z,5.75
2018-03-21T09:54:37.072Z,4.47
2018-03-21T09:55:39.597Z,4.95
2018-03-21T09:56:42.118Z,7.45
2018-03-21T09:57:45.400Z,3.45
2018-03-21T09:58:48.688Z,7.50
2018-03-21T09:59:52.016Z,6.00
2018-03-21T10:00:54.543Z,5.87
2018-03-21T10:01:57.073Z,6.65
2018-03-21T10:02:59.612Z,4.50
2018-03-21T10:04:02.129Z,6.00
2018-03-21T10:05:05.437Z,4.35
2018-03-21T10:06:07.951Z,7.18
2018-03-21T10:07:10.508Z,5.15
2018-03-21T10:08:13.020Z,6.47
2018-03-21T10:09:15.536Z,13.05
2018-03-21T10:10:18.066Z,6.37
2018-03-21T10:11:20.609Z,7.72
2018-03-21T10:12:23.124Z,5.05
2018-03-21T10:13:25.682Z,8.15
2018-03-21T10:14:28.208Z,8.38
2018-03-21T10:15:31.489Z,3.00
2018-03-21T10:16:34.813Z,4.47
2018-03-21T10:17:37.383Z,4.68
2018-03-21T10:18:39.918Z,5.00
2018-03-21T10:19:43.202Z,9.60
2018-03-21T10:20:46.483Z,5.22
2018-03-21T10:21:49.783Z,11.77
2018-03-21T10:22:52.331Z,6.82
2018-03-21T10:23:55.618Z,5.70
2018-03-21T10:24:58.900Z,7.50
2018-03-21T10:26:02.189Z,3.65
2018-03-21T10:27:04.767Z,8.45
2018-03-21T10:28:07.322Z,9.15
2018-03-21T10:29:09.837Z,4.18
2018-03-21T10:30:12.361Z,6.07
2018-03-21T10:31:14.906Z,7.82
2018-03-21T10:32:18.229Z,6.05
2018-03-21T10:33:20.753Z,5.72
2018-03-21T10:34:24.070Z,4.47
2018-03-21T10:35:26.584Z,7.28
2018-03-21T10:36:29.099Z,4.68
2018-03-21T10:37:31.618Z,4.15
2018-03-21T10:38:34.139Z,12.65
2018-03-21T10:39:36.688Z,8.48
2018-03-21T10:40:39.201Z,6.53
2018-03-21T10:41:42.484Z,11.57
2018-03-21T10:42:45.111Z,11.50
2018-03-21T10:43:48.374Z,3.62
2018-03-21T10:44:51.759Z,7.80
2018-03-21T10:45:54.259Z,5.78
2018-03-21T10:46:56.800Z,4.75
2018-03-21T10:47:59.329Z,10.45
2018-03-21T10:49:01.841Z,5.70
2018-03-21T10:50:04.402Z,5.68
2018-03-21T10:51:06.926Z,7.00
2018-03-21T10:52:09.445Z,7.87
2018-03-21T10:53:11.961Z,7.90
2018-03-21T10:54:14.513Z,6.20
2018-03-21T10:55:17.080Z,9.32
2018-03-21T10:56:19.601Z,3.90
2018-03-21T10:57:22.125Z,6.85
2018-03-21T10:58:24.656Z,5.65
2018-03-21T10:59:27.172Z,6.10
2018-03-21T11:00:29.733Z,7.10
2018-03-21T11:01:39.998Z,5.70
2018-03-21T11:02:49.132Z,6.30
2018-03-21T11:03:56.506Z,4.82
2018-03-21T11:04:59.034Z,6.68
2018-03-21T11:06:01.596Z,7.55
2018-03-21T11:07:04.394Z,5.45
2018-03-21T11:08:07.737Z,5.87
2018-03-21T11:09:10.227Z,4.90
2018-03-21T11:10:12.751Z,8.05
2018-03-21T11:11:15.314Z,9.15
2018-03-21T11:12:17.833Z,7.18
2018-03-21T11:13:20.359Z,11.65
2018-03-21T11:14:22.877Z,8.98
2018-03-21T11:15:26.168Z,6.65
2018-03-21T11:16:29.499Z,12.75
2018-03-21T11:17:32.009Z,5.22
2018-03-21T11:18:34.530Z,4.82
2018-03-21T11:19:37.047Z,4.00
2018-03-21T11:20:40.372Z,16.87
2018-03-21T11:21:42.887Z,7.93
2018-03-21T11:22:46.177Z,9.75
2018-03-21T11:23:49.452Z,7.45
2018-03-21T11:24:51.996Z,5.93
2018-03-21T11:25:54.549Z,6.60
2018-03-21T11:26:57.067Z,9.93
2018-03-21T11:28:00.337Z,8.68
2018-03-21T11:29:03.614Z,8.00
2018-03-21T11:30:06.133Z,7.37
2018-03-21T11:31:08.676Z,5.90
2018-03-21T11:32:11.184Z,8.75
2018-03-21T11:33:13.689Z,7.68
2018-03-21T11:34:16.978Z,5.15
2018-03-21T11:35:19.509Z,7.12
2018-03-21T11:36:22.070Z,10.45
2018-03-21T11:37:24.599Z,4.55
2018-03-21T11:38:27.110Z,9.02
2018-03-21T11:39:29.631Z,5.68
2018-03-21T11:40:32.150Z,6.95
2018-03-21T11:41:34.715Z,4.35
2018-03-21T11:42:37.229Z,7.43
2018-03-21T11:43:39.755Z,5.47
2018-03-21T11:44:42.288Z,5.30
2018-03-21T11:45:44.805Z,4.28
2018-03-21T11:46:48.121Z,5.28
2018-03-21T11:47:50.661Z,5.65
2018-03-21T11:48:53.221Z,5.40
2018-03-21T11:49:56.499Z,6.07
2018-03-21T11:50:59.784Z,4.50
2018-03-21T11:52:03.070Z,5.60
2018-03-21T11:53:06.371Z,9.73
2018-03-21T11:54:08.929Z,4.45
2018-03-21T11:55:11.504Z,4.90
2018-03-21T11:56:14.025Z,9.75
2018-03-21T11:57:16.550Z,8.40
2018-03-21T11:58:19.065Z,9.02
2018-03-21T11:59:21.609Z,5.12
2018-03-21T12:00:24.137Z,12.45
2018-03-21T12:01:26.655Z,5.72
2018-03-21T12:02:29.210Z,5.20
2018-03-21T12:03:31.739Z,8.25
2018-03-21T12:04:34.265Z,3.83
2018-03-21T12:05:36.824Z,7.03
2018-03-21T12:06:39.340Z,10.23
2018-03-21T12:07:41.861Z,4.87
2018-03-21T12:08:44.432Z,4.70
2018-03-21T12:09:46.925Z,7.00
2018-03-21T12:10:49.474Z,7.07
2018-03-21T12:11:52.766Z,5.07
2018-03-21T12:12:56.048Z,4.97
2018-03-21T12:13:59.336Z,7.47
2018-03-21T12:15:01.868Z,4.65
2018-03-21T12:16:04.420Z,8.93
2018-03-21T12:17:06.950Z,4.57
2018-03-21T12:18:09.474Z,4.25
2018-03-21T12:19:11.992Z,5.57
2018-03-21T12:20:14.512Z,5.30
2018-03-21T12:21:17.841Z,6.37
2018-03-21T12:22:20.353Z,6.00
2018-03-21T12:23:22.902Z,10.63
2018-03-21T12:24:25.424Z,8.68
2018-03-21T12:25:28.270Z,6.18
2018-03-21T12:26:31.590Z,5.20
2018-03-21T12:27:34.128Z,8.00
2018-03-21T12:28:37.448Z,4.95
2018-03-21T12:29:39.974Z,6.90
2018-03-21T12:30:43.274Z,4.47
2018-03-21T12:31:45.807Z,5.70
2018-03-21T12:32:48.329Z,6.45
2018-03-21T12:33:50.899Z,6.57
2018-03-21T12:34:53.592Z,3.72
2018-03-21T12:35:56.122Z,7.75
2018-03-21T12:36:58.647Z,3.10
2018-03-21T12:38:01.170Z,7.43
2018-03-21T12:39:03.734Z,9.38
2018-03-21T12:40:06.260Z,5.20
2018-03-21T12:41:09.670Z,6.45
2018-03-21T12:42:12.193Z,3.00
2018-03-21T12:43:14.784Z,7.32
2018-03-21T12:44:18.074Z,4.25
2018-03-21T12:45:21.364Z,5.18
2018-03-21T12:46:23.914Z,4.53
2018-03-21T12:47:27.201Z,3.37
2018-03-21T12:48:29.729Z,8.77
2018-03-21T12:49:32.275Z,8.00
2018-03-21T12:50:34.799Z,5.32
2018-03-21T12:51:38.123Z,8.82
2018-03-21T12:52:40.653Z,7.12
2018-03-21T12:53:43.956Z,5.35
2018-03-21T12:54:46.478Z,3.75
2018-03-21T12:55:49.100Z,3.15
2018-03-21T12:56:51.583Z,5.80
2018-03-21T12:57:54.117Z,3.58
2018-03-21T12:58:56.636Z,6.10
2018-03-21T12:59:59.198Z,5.18
2018-03-21T13:01:01.723Z,5.03
2018-03-21T13:02:04.246Z,4.97
2018-03-21T13:03:06.760Z,4.05
2018-03-21T13:04:09.288Z,4.62
2018-03-21T13:05:12.618Z,3.90
2018-03-21T13:06:15.140Z,7.30
2018-03-21T13:07:18.430Z,9.95
2018-03-21T13:08:20.966Z,5.82
2018-03-21T13:09:23.494Z,6.35
2018-03-21T13:10:26.051Z,7.53
2018-03-21T13:11:28.573Z,3.37
2018-03-21T13:12:31.097Z,6.62
2018-03-21T13:13:33.645Z,5.28
2018-03-21T13:14:36.190Z,4.30
2018-03-21T13:15:39.517Z,5.87
2018-03-21T13:16:42.053Z,5.00
2018-03-21T13:17:44.573Z,4.40
2018-03-21T13:18:47.103Z,5.20
2018-03-21T13:19:49.618Z,4.68
2018-03-21T13:20:52.203Z,6.57
2018-03-21T13:21:55.512Z,5.80
2018-03-21T13:22:58.086Z,4.95
2018-03-21T13:24:01.345Z,2.95
2018-03-21T13:25:03.895Z,4.70
2018-03-21T13:26:07.261Z,4.80
2018-03-21T13:27:09.753Z,4.50
2018-03-21T13:28:12.312Z,4.70
2018-03-21T13:29:15.613Z,5.80
2018-03-21T13:30:18.138Z,3.28
2018-03-21T13:31:20.688Z,3.55
2018-03-21T13:32:23.212Z,6.43
2018-03-21T13:33:25.743Z,6.55
2018-03-21T13:34:28.266Z,2.47
2018-03-21T13:35:30.837Z,7.82
2018-03-21T13:36:33.353Z,4.97
2018-03-21T13:37:35.869Z,2.42
2018-03-21T13:38:38.387Z,2.45
2018-03-21T13:39:40.906Z,8.05
2018-03-21T13:40:43.456Z,9.10
2018-03-21T13:41:45.984Z,4.20
2018-03-21T13:42:49.311Z,4.78
2018-03-21T13:43:51.827Z,5.43
2018-03-21T13:44:54.386Z,5.30
2018-03-21T13:45:56.906Z,3.90
2018-03-21T13:46:59.473Z,9.40
2018-03-21T13:48:02.042Z,4.07
2018-03-21T13:49:04.550Z,5.05
2018-03-21T13:50:07.126Z,5.93
2018-03-21T13:51:09.645Z,3.90
2018-03-21T13:52:12.189Z,3.20
2018-03-21T13:53:14.701Z,2.80
2018-03-21T13:54:17.219Z,2.67
2018-03-21T13:55:19.773Z,2.60
2018-03-21T13:56:23.058Z,1.85